createdAt,value
2018-05-18T00:01:59.988Z,91.60
2018-05-18T00:04:27.719Z,91.60
2018-05-18T00:06:55.222Z,91.70
2018-05-18T00:09:22.758Z,91.70
2018-05-18T00:11:50.267Z,91.90
2018-05-18T00:14:17.810Z,91.70
2018-05-18T00:16:46.078Z,92.10
2018-05-18T00:19:14.347Z,91.80
2018-05-18T00:21:41.926Z,91.70
2018-05-18T00:24:09.422Z,92.00
2018-05-18T00:26:36.965Z,92.00
2018-05-18T00:29:04.466Z,92.10
2018-05-18T00:31:31.999Z,92.10
2018-05-18T00:33:59.492Z,92.20
2018-05-18T00:36:27.026Z,92.40
2018-05-18T00:38:54.539Z,92.20
2018-05-18T00:41:22.073Z,91.90
2018-05-18T00:43:49.567Z,92.20
2018-05-18T00:46:17.167Z,92.40
2018-05-18T00:48:45.546Z,92.40
2018-05-18T00:51:13.090Z,92.40
2018-05-18T00:53:40.587Z,92.40
2018-05-18T00:56:08.125Z,92.30
2018-05-18T00:58:35.623Z,92.60
2018-05-18T01:01:03.167Z,92.50
2018-05-18T01:03:30.659Z,92.60
2018-05-18T01:05:58.927Z,92.70
2018-05-18T01:08:27.238Z,92.60
2018-05-18T01:10:54.770Z,92.60
2018-05-18T01:13:22.315Z,92.80
2018-05-18T01:15:50.598Z,92.60
2018-05-18T01:18:18.878Z,92.90
2018-05-18T01:20:47.134Z,92.50
2018-05-18T01:23:14.667Z,92.50
2018-05-18T01:25:42.179Z,92.70
2018-05-18T01:28:09.714Z,92.50
2018-05-18T01:30:37.991Z,92.60
2018-05-18T01:33:06.287Z,92.40
2018-05-18T01:35:33.782Z,92.60
2018-05-18T01:38:01.325Z,92.60
2018-05-18T01:40:28.819Z,92.80
2018-05-18T01:42:56.371Z,92.60
2018-05-18T01:45:23.887Z,92.80
2018-05-18T01:47:51.399Z,92.90
2018-05-18T01:50:18.947Z,92.80
2018-05-18T01:52:46.447Z,92.80
2018-05-18T01:55:13.987Z,92.80
2018-05-18T01:57:41.488Z,92.70
2018-05-18T02:00:09.035Z,92.80
2018-05-18T02:02:36.538Z,92.70
2018-05-18T02:05:04.075Z,92.70
2018-05-18T02:07:31.570Z,92.60
2018-05-18T02:10:00.674Z,92.70
2018-05-18T02:12:28.177Z,92.70
2018-05-18T02:14:55.707Z,92.90
2018-05-18T02:17:23.990Z,92.70
2018-05-18T02:19:52.624Z,93.10
2018-05-18T02:22:20.144Z,92.90
2018-05-18T02:24:47.701Z,92.70
2018-05-18T02:27:15.347Z,92.80
2018-05-18T02:29:42.850Z,93.00
2018-05-18T02:32:10.382Z,92.80
2018-05-18T02:34:37.879Z,92.70
2018-05-18T02:37:05.421Z,92.90
2018-05-18T02:39:32.919Z,93.20
2018-05-18T02:42:00.452Z,93.20
2018-05-18T02:44:27.962Z,93.20
2018-05-18T02:46:55.532Z,92.90
2018-05-18T02:49:23.081Z,93.10
2018-05-18T02:51:50.643Z,93.20
2018-05-18T02:54:18.927Z,93.10
2018-05-18T02:56:47.230Z,93.20
2018-05-18T02:59:14.859Z,93.20
2018-05-18T03:01:43.142Z,93.40
2018-05-18T03:04:10.712Z,93.40
2018-05-18T03:06:38.211Z,93.30
2018-05-18T03:09:05.762Z,93.50
2018-05-18T03:11:33.342Z,93.10
2018-05-18T03:14:00.953Z,93.10
2018-05-18T03:16:28.535Z,93.30
2018-05-18T03:18:56.108Z,93.30
2018-05-18T03:21:23.627Z,93.50
2018-05-18T03:23:51.171Z,93.50
2018-05-18T03:26:18.672Z,93.60
2018-05-18T03:28:46.211Z,93.50
2018-05-18T03:31:16.356Z,93.60
2018-05-18T03:33:43.932Z,93.60
2018-05-18T03:36:11.439Z,93.50
2018-05-18T03:38:38.981Z,93.50
2018-05-18T03:41:06.487Z,93.50
2018-05-18T03:43:34.019Z,93.50
2018-05-18T03:46:01.582Z,93.40
2018-05-18T03:48:29.128Z,93.40
2018-05-18T03:50:56.665Z,93.40
2018-05-18T03:53:24.159Z,93.10
2018-05-18T03:55:51.743Z,93.40
2018-05-18T03:58:19.258Z,93.40
2018-05-18T04:00:46.795Z,93.20
2018-05-18T04:03:25.980Z,93.20
2018-05-18T04:06:05.594Z,93.20
2018-05-18T04:08:48.928Z,93.20
2018-05-18T04:11:16.689Z,93.20
2018-05-18T04:13:44.197Z,93.20
2018-05-18T04:16:11.691Z,93.40
2018-05-18T04:18:40.021Z,93.30
2018-05-18T04:21:07.531Z,93.30
2018-05-18T04:23:35.088Z,93.30
2018-05-18T04:26:03.354Z,93.30
2018-05-18T04:28:31.752Z,93.30
2018-05-18T04:30:59.258Z,93.30
2018-05-18T04:33:26.809Z,93.30
2018-05-18T04:35:54.424Z,93.10
2018-05-18T04:38:22.682Z,93.20
2018-05-18T04:40:50.217Z,93.20
2018-05-18T04:43:17.806Z,92.80
2018-05-18T04:45:45.262Z,92.80
2018-05-18T04:48:13.533Z,92.90
2018-05-18T04:50:42.147Z,93.00
2018-05-18T04:53:09.650Z,92.80
2018-05-18T04:55:37.151Z,92.70
2018-05-18T04:58:05.446Z,92.70
2018-05-18T05:00:32.950Z,92.70
2018-05-18T05:03:00.482Z,92.50
2018-05-18T05:05:28.097Z,92.70
2018-05-18T05:07:55.629Z,92.70
2018-05-18T05:10:23.130Z,92.60
2018-05-18T05:12:51.430Z,92.60
2018-05-18T05:15:18.922Z,92.60
2018-05-18T05:17:46.452Z,92.50
2018-05-18T05:20:13.955Z,92.60
2018-05-18T05:22:41.483Z,92.40
2018-05-18T05:25:09.001Z,92.40
2018-05-18T05:27:36.539Z,92.40
2018-05-18T05:30:04.807Z,92.30
2018-05-18T05:32:32.354Z,92.20
2018-05-18T05:35:00.634Z,92.10
2018-05-18T05:37:29.674Z,92.10
2018-05-18T05:39:57.174Z,92.10
2018-05-18T05:42:24.719Z,92.10
2018-05-18T05:44:52.232Z,91.70
2018-05-18T05:47:20.540Z,91.70
2018-05-18T05:49:48.039Z,91.70
2018-05-18T05:52:16.342Z,91.70
2018-05-18T05:54:43.834Z,91.70
2018-05-18T05:57:11.366Z,91.60
2018-05-18T05:59:39.631Z,91.40
2018-05-18T06:02:08.130Z,91.50
2018-05-18T06:04:35.850Z,91.50
2018-05-18T06:07:03.388Z,91.40
2018-05-18T06:09:30.881Z,91.30
2018-05-18T06:11:58.408Z,91.20
2018-05-18T06:14:25.913Z,91.20
2018-05-18T06:16:53.438Z,91.00
2018-05-18T06:19:20.934Z,90.90
2018-05-18T06:21:49.235Z,90.90
2018-05-18T06:24:16.742Z,90.90
2018-05-18T06:26:44.283Z,90.80
2018-05-18T06:29:11.783Z,90.30
2018-05-18T06:31:40.081Z,90.00
2018-05-18T06:34:07.576Z,90.00
2018-05-18T06:36:35.108Z,90.00
2018-05-18T06:39:02.607Z,89.60
2018-05-18T06:41:30.150Z,88.40
2018-05-18T06:43:57.666Z,88.30
2018-05-18T06:46:25.220Z,88.20
2018-05-18T06:48:53.617Z,88.00
2018-05-18T06:51:21.156Z,88.00
2018-05-18T06:53:49.428Z,88.00
2018-05-18T06:56:17.735Z,88.30
2018-05-18T06:58:45.250Z,88.20
2018-05-18T07:01:12.785Z,87.90
2018-05-18T07:03:40.283Z,88.30
2018-05-18T07:06:08.064Z,88.40
2018-05-18T07:08:35.567Z,88.30
2018-05-18T07:11:03.098Z,88.60
2018-05-18T07:13:30.594Z,88.70
2018-05-18T07:15:58.102Z,89.00
2018-05-18T07:18:25.940Z,89.10
2018-05-18T07:20:53.448Z,89.50
2018-05-18T07:23:20.991Z,89.50
2018-05-18T07:25:48.491Z,89.40
2018-05-18T07:28:16.032Z,89.60
2018-05-18T07:30:43.531Z,89.50
2018-05-18T07:33:11.847Z,89.10
2018-05-18T07:35:39.352Z,89.10
2018-05-18T07:38:07.645Z,88.10
2018-05-18T07:40:35.186Z,88.00
2018-05-18T07:43:02.724Z,87.60
2018-05-18T07:45:30.223Z,87.60
2018-05-18T07:47:57.896Z,87.50
2018-05-18T07:50:25.411Z,87.30
2018-05-18T07:52:52.914Z,86.60
2018-05-18T07:55:20.451Z,86.70
2018-05-18T07:57:47.955Z,86.60
2018-05-18T08:00:15.508Z,86.70
2018-05-18T08:02:43.008Z,86.70
2018-05-18T08:05:10.546Z,86.70
2018-05-18T08:07:38.051Z,86.70
2018-05-18T08:10:06.363Z,86.60
2018-05-18T08:12:33.869Z,86.60
2018-05-18T08:15:01.456Z,86.60
2018-05-18T08:17:29.724Z,86.70
2018-05-18T08:19:58.064Z,86.60
2018-05-18T08:22:25.611Z,86.60
2018-05-18T08:24:53.137Z,86.50
2018-05-18T08:27:23.493Z,86.60
2018-05-18T08:29:50.999Z,86.70
2018-05-18T08:32:18.547Z,86.80
2018-05-18T08:34:46.834Z,86.60
2018-05-18T08:37:15.136Z,86.00
2018-05-18T08:39:42.649Z,86.50
2018-05-18T08:42:10.213Z,84.60
2018-05-18T08:44:37.722Z,85.00
2018-05-18T08:47:05.272Z,85.20
2018-05-18T08:49:32.823Z,85.00
2018-05-18T08:52:00.333Z,84.90
2018-05-18T08:54:27.892Z,85.00
2018-05-18T08:56:55.431Z,84.80
2018-05-18T08:59:22.940Z,84.90
2018-05-18T09:01:50.511Z,85.00
2018-05-18T09:04:18.034Z,84.60
2018-05-18T09:06:45.553Z,85.00
2018-05-18T09:09:13.124Z,85.10
2018-05-18T09:11:40.628Z,84.90
2018-05-18T09:14:08.164Z,85.00
2018-05-18T09:16:35.686Z,84.60
2018-05-18T09:19:03.234Z,84.60
2018-05-18T09:21:30.752Z,85.10
2018-05-18T09:23:58.291Z,84.50
2018-05-18T09:26:25.830Z,83.10
2018-05-18T09:28:53.413Z,83.80
2018-05-18T09:31:20.918Z,83.20
2018-05-18T09:33:49.227Z,83.30
2018-05-18T09:36:16.776Z,83.30
2018-05-18T09:38:44.337Z,83.80
2018-05-18T09:41:11.847Z,83.40
2018-05-18T09:43:39.398Z,82.80
2018-05-18T09:46:06.909Z,82.40
2018-05-18T09:48:34.484Z,82.70
2018-05-18T09:51:01.995Z,82.30
2018-05-18T09:53:30.264Z,81.80
2018-05-18T09:55:57.810Z,81.70
2018-05-18T09:58:25.327Z,81.20
2018-05-18T10:00:52.880Z,81.50
2018-05-18T10:03:20.389Z,82.10
2018-05-18T10:05:47.941Z,81.70
2018-05-18T10:08:15.473Z,82.00
2018-05-18T10:10:43.023Z,81.20
2018-05-18T10:13:10.528Z,81.70
2018-05-18T10:15:38.063Z,81.60
2018-05-18T10:18:05.572Z,81.70
2018-05-18T10:20:33.135Z,82.30
2018-05-18T10:23:00.647Z,81.70
2018-05-18T10:25:28.139Z,81.70
2018-05-18T10:27:55.831Z,81.90
2018-05-18T10:30:30.180Z,82.10
2018-05-18T10:32:57.683Z,81.70
2018-05-18T10:35:25.186Z,81.20
2018-05-18T10:37:52.737Z,80.70
2018-05-18T10:40:20.243Z,81.90
2018-05-18T10:42:47.946Z,81.20
2018-05-18T10:45:15.526Z,81.50
2018-05-18T10:47:43.049Z,81.00
2018-05-18T10:50:10.561Z,80.90
2018-05-18T10:52:38.103Z,79.80
2018-05-18T10:55:05.611Z,80.40
2018-05-18T10:57:33.147Z,79.90
2018-05-18T11:00:00.659Z,80.60
2018-05-18T11:02:28.204Z,80.00
2018-05-18T11:04:55.702Z,80.60
2018-05-18T11:07:23.255Z,81.40
2018-05-18T11:09:50.772Z,79.70
2018-05-18T11:12:18.319Z,79.60
2018-05-18T11:14:46.592Z,79.60
2018-05-18T11:17:14.906Z,79.60
2018-05-18T11:19:42.402Z,79.60
2018-05-18T11:22:09.963Z,79.70
2018-05-18T11:24:37.466Z,80.40
2018-05-18T11:27:04.973Z,78.80
2018-05-18T11:29:32.534Z,78.70
2018-05-18T11:32:00.100Z,79.70
2018-05-18T11:34:27.594Z,78.50
2018-05-18T11:36:56.084Z,78.00
2018-05-18T11:39:23.622Z,78.30
2018-05-18T11:41:51.130Z,78.50
2018-05-18T11:44:18.673Z,78.70
2018-05-18T11:46:46.209Z,77.60
2018-05-18T11:49:14.523Z,78.20
2018-05-18T11:51:42.028Z,77.60
2018-05-18T11:54:09.579Z,77.90
2018-05-18T11:56:37.073Z,76.90
2018-05-18T11:59:04.606Z,78.00
2018-05-18T12:01:32.116Z,78.00
2018-05-18T12:03:59.970Z,79.00
2018-05-18T12:06:27.494Z,78.30
2018-05-18T12:08:55.831Z,78.30
2018-05-18T12:11:23.331Z,78.30
2018-05-18T12:13:50.834Z,77.90
2018-05-18T12:16:18.364Z,77.70
2018-05-18T12:18:45.865Z,78.00
2018-05-18T12:21:13.397Z,77.10
2018-05-18T12:23:40.898Z,76.50
2018-05-18T12:26:08.538Z,77.40
2018-05-18T12:28:36.003Z,76.30
2018-05-18T12:31:03.562Z,77.00
2018-05-18T12:33:31.074Z,77.30
2018-05-18T12:35:58.613Z,77.50
2018-05-18T12:38:26.983Z,78.10
2018-05-18T12:40:54.523Z,77.50
2018-05-18T12:43:22.027Z,77.40
2018-05-18T12:45:50.342Z,76.60
2018-05-18T12:48:17.849Z,76.70
2018-05-18T12:50:45.383Z,76.40
2018-05-18T12:53:13.002Z,76.40
2018-05-18T12:55:40.732Z,75.50
2018-05-18T12:58:09.147Z,74.80
2018-05-18T13:00:36.696Z,74.70
2018-05-18T13:03:04.212Z,75.30
2018-05-18T13:05:31.907Z,75.00
2018-05-18T13:07:59.439Z,75.50
2018-05-18T13:10:26.981Z,75.90
2018-05-18T13:12:54.497Z,73.50
2018-05-18T13:15:22.043Z,73.60
2018-05-18T13:17:49.555Z,74.30
2018-05-18T13:20:17.095Z,73.00
2018-05-18T13:22:44.602Z,73.20
2018-05-18T13:25:12.910Z,72.10
2018-05-18T13:27:40.417Z,72.20
2018-05-18T13:30:09.485Z,72.50
2018-05-18T13:32:36.992Z,72.50
2018-05-18T13:35:04.500Z,72.30
2018-05-18T13:37:32.035Z,73.40
2018-05-18T13:39:59.544Z,73.70
2018-05-18T13:42:27.096Z,72.30
2018-05-18T13:44:54.648Z,73.20
2018-05-18T13:47:22.154Z,75.10
2018-05-18T13:49:49.657Z,74.20
2018-05-18T13:52:17.194Z,72.90
2018-05-18T13:54:44.696Z,72.90
2018-05-18T13:57:12.317Z,70.50
2018-05-18T13:59:39.773Z,70.90
2018-05-18T14:02:07.338Z,70.60
2018-05-18T14:04:35.775Z,67.80
2018-05-18T14:07:03.441Z,66.80
2018-05-18T14:09:30.965Z,66.70
2018-05-18T14:11:58.612Z,67.30
2018-05-18T14:14:26.162Z,69.30
2018-05-18T14:16:53.742Z,68.20
2018-05-18T14:19:21.287Z,67.90
2018-05-18T14:21:48.791Z,69.40
2018-05-18T14:24:16.611Z,68.30
2018-05-18T14:26:44.123Z,68.50
2018-05-18T14:29:11.679Z,68.50
2018-05-18T14:31:39.954Z,71.20
2018-05-18T14:34:08.271Z,70.50
2018-05-18T14:36:35.774Z,70.60
2018-05-18T14:39:03.349Z,70.90
2018-05-18T14:41:30.841Z,71.50
2018-05-18T14:43:58.469Z,71.40
2018-05-18T14:46:25.899Z,70.40
2018-05-18T14:48:53.442Z,70.70
2018-05-18T14:51:20.980Z,70.60
2018-05-18T14:53:48.475Z,69.10
2018-05-18T14:56:15.992Z,68.60
2018-05-18T14:58:43.538Z,68.70
2018-05-18T15:01:11.031Z,68.40
2018-05-18T15:03:38.584Z,68.30
2018-05-18T15:06:06.076Z,68.80
2018-05-18T15:08:33.627Z,68.60
2018-05-18T15:11:01.160Z,69.50
2018-05-18T15:13:28.711Z,68.30
2018-05-18T15:15:56.213Z,67.40
2018-05-18T15:18:23.753Z,67.20
2018-05-18T15:20:51.254Z,68.70
2018-05-18T15:23:18.939Z,67.70
2018-05-18T15:25:46.430Z,68.20
2018-05-18T15:28:14.018Z,68.60
2018-05-18T15:30:41.558Z,68.40
2018-05-18T15:33:09.078Z,68.00
2018-05-18T15:35:36.642Z,67.80
2018-05-18T15:38:04.150Z,68.90
2018-05-18T15:40:31.702Z,69.60
2018-05-18T15:42:59.962Z,70.60
2018-05-18T15:45:27.497Z,70.50
2018-05-18T15:47:55.443Z,70.70
2018-05-18T15:50:22.992Z,70.60
2018-05-18T15:52:50.487Z,71.60
2018-05-18T15:55:18.017Z,71.50
2018-05-18T15:57:45.599Z,71.50
2018-05-18T16:00:13.147Z,71.40
2018-05-18T16:02:40.643Z,71.90
2018-05-18T16:05:08.188Z,71.90
2018-05-18T16:07:35.698Z,71.40
2018-05-18T16:10:04.175Z,71.20
2018-05-18T16:12:32.472Z,71.40
2018-05-18T16:15:00.005Z,71.50
2018-05-18T16:17:29.017Z,72.10
2018-05-18T16:19:57.338Z,72.30
2018-05-18T16:22:24.833Z,72.40
2018-05-18T16:24:52.383Z,72.10
2018-05-18T16:27:19.896Z,72.30
2018-05-18T16:29:47.458Z,72.10
2018-05-18T16:32:14.958Z,72.30
2018-05-18T16:34:42.469Z,72.70
2018-05-18T16:37:10.017Z,73.00
2018-05-18T16:39:37.532Z,73.00
2018-05-18T16:42:05.239Z,73.10
2018-05-18T16:44:32.746Z,73.30
2018-05-18T16:47:00.294Z,73.70
2018-05-18T16:49:27.838Z,73.50
2018-05-18T16:51:55.381Z,73.40
2018-05-18T16:54:22.887Z,73.70
2018-05-18T16:56:50.416Z,74.20
2018-05-18T16:59:17.910Z,75.00
2018-05-18T17:01:45.454Z,74.90
2018-05-18T17:04:12.959Z,74.90
2018-05-18T17:06:41.255Z,74.80
2018-05-18T17:09:08.763Z,74.80
2018-05-18T17:11:37.805Z,74.70
2018-05-18T17:14:05.456Z,74.70
2018-05-18T17:16:33.002Z,74.70
2018-05-18T17:19:00.502Z,74.70
2018-05-18T17:21:28.042Z,75.00
2018-05-18T17:23:55.540Z,74.80
2018-05-18T17:26:23.081Z,75.10
2018-05-18T17:28:50.667Z,75.30
2018-05-18T17:31:18.211Z,75.50
2018-05-18T17:33:45.718Z,75.60
2018-05-18T17:36:13.259Z,75.80
2018-05-18T17:38:40.769Z,76.10
2018-05-18T17:41:08.327Z,76.00
2018-05-18T17:43:35.838Z,76.00
2018-05-18T17:46:03.352Z,76.40
2018-05-18T17:48:30.887Z,76.30
2018-05-18T17:50:58.386Z,76.10
2018-05-18T17:53:25.929Z,76.10
2018-05-18T17:55:53.468Z,76.50
2018-05-18T17:58:20.971Z,76.70
2018-05-18T18:00:48.535Z,77.00
2018-05-18T18:03:16.040Z,77.10
2018-05-18T18:05:43.580Z,76.90
2018-05-18T18:08:11.082Z,77.00
2018-05-18T18:10:38.633Z,77.10
2018-05-18T18:13:06.144Z,77.40
2018-05-18T18:15:33.729Z,77.50
2018-05-18T18:18:01.235Z,77.70
2018-05-18T18:20:30.259Z,77.70
2018-05-18T18:22:58.592Z,77.60
2018-05-18T18:25:26.106Z,77.60
2018-05-18T18:27:53.667Z,77.90
2018-05-18T18:30:21.946Z,78.10
2018-05-18T18:32:49.499Z,78.10
2018-05-18T18:35:17.023Z,78.10
2018-05-18T18:37:44.558Z,78.10
2018-05-18T18:40:12.062Z,78.10
2018-05-18T18:42:39.659Z,78.10
2018-05-18T18:45:08.160Z,78.10
2018-05-18T18:47:35.749Z,78.00
2018-05-18T18:50:03.262Z,78.00
2018-05-18T18:52:30.811Z,78.00
2018-05-18T18:54:58.314Z,78.00
2018-05-18T18:57:25.860Z,78.20
2018-05-18T18:59:53.363Z,77.90
2018-05-18T19:02:20.965Z,78.20
2018-05-18T19:04:48.470Z,78.30
2018-05-18T19:07:16.006Z,78.50
2018-05-18T19:09:43.571Z,78.90
2018-05-18T19:12:11.094Z,79.20
2018-05-18T19:14:38.634Z,79.40
2018-05-18T19:17:06.161Z,78.80
2018-05-18T19:19:34.699Z,78.60
2018-05-18T19:22:02.207Z,78.60
2018-05-18T19:24:29.752Z,78.60
2018-05-18T19:26:57.267Z,78.90
2018-05-18T19:29:24.836Z,79.00
2018-05-18T19:31:52.356Z,78.90
2018-05-18T19:34:19.920Z,79.50
2018-05-18T19:36:48.209Z,80.10
2018-05-18T19:39:15.755Z,80.70
2018-05-18T19:41:43.284Z,80.60
2018-05-18T19:44:10.853Z,80.70
2018-05-18T19:46:38.411Z,80.80
2018-05-18T19:49:05.928Z,80.70
2018-05-18T19:51:33.486Z,80.50
2018-05-18T19:54:01.010Z,80.30
2018-05-18T19:56:29.323Z,80.50
2018-05-18T19:58:56.839Z,80.50
2018-05-18T20:01:24.427Z,80.00
2018-05-18T20:03:51.966Z,79.70
2018-05-18T20:06:19.505Z,79.90
2018-05-18T20:08:47.014Z,79.90
2018-05-18T20:11:15.373Z,80.00
2018-05-18T20:13:42.891Z,79.90
2018-05-18T20:16:10.435Z,79.50
2018-05-18T20:18:37.983Z,79.60
2018-05-18T20:21:05.529Z,79.90
2018-05-18T20:23:33.043Z,79.70
2018-05-18T20:26:00.628Z,79.80
2018-05-18T20:28:28.208Z,80.10
2018-05-18T20:30:55.853Z,80.20
2018-05-18T20:33:23.376Z,79.80
2018-05-18T20:35:50.892Z,79.70
2018-05-18T20:38:18.468Z,79.10
2018-05-18T20:40:46.008Z,79.70
2018-05-18T20:43:13.556Z,79.90
2018-05-18T20:45:41.104Z,80.20
2018-05-18T20:48:08.666Z,80.30
2018-05-18T20:50:36.170Z,80.20
2018-05-18T20:53:03.710Z,80.00
2018-05-18T20:55:31.239Z,80.30
2018-05-18T20:57:58.771Z,79.80
2018-05-18T21:00:27.100Z,80.40
2018-05-18T21:02:54.646Z,79.70
2018-05-18T21:05:22.172Z,80.00
2018-05-18T21:07:50.545Z,80.00
2018-05-18T21:10:18.072Z,79.90
2018-05-18T21:12:45.670Z,80.40
2018-05-18T21:15:13.290Z,80.40
2018-05-18T21:17:40.808Z,80.50
2018-05-18T21:20:08.360Z,80.80
2018-05-18T21:22:36.678Z,80.60
2018-05-18T21:25:04.239Z,80.60
2018-05-18T21:27:31.789Z,80.50
2018-05-18T21:29:59.569Z,80.10
2018-05-18T21:32:27.135Z,80.20
2018-05-18T21:34:55.487Z,80.90
2018-05-18T21:37:23.347Z,80.70
2018-05-18T21:39:50.946Z,80.60
2018-05-18T21:42:18.453Z,81.20
2018-05-18T21:44:46.065Z,80.90
2018-05-18T21:47:13.631Z,81.10
2018-05-18T21:49:41.223Z,81.10
2018-05-18T21:52:08.749Z,81.20
2018-05-18T21:54:37.074Z,81.60
2018-05-18T21:57:04.584Z,81.50
2018-05-18T21:59:32.180Z,81.60
2018-05-18T22:02:00.452Z,81.60
2018-05-18T22:04:29.611Z,81.60
2018-05-18T22:06:57.125Z,81.50
2018-05-18T22:09:24.651Z,81.60
2018-05-18T22:11:52.291Z,81.60
2018-05-18T22:14:19.792Z,81.60
2018-05-18T22:16:47.333Z,81.60
2018-05-18T22:19:14.915Z,81.60
2018-05-18T22:21:42.463Z,82.10
2018-05-18T22:24:09.978Z,82.20
2018-05-18T22:26:37.599Z,82.10
2018-05-18T22:29:05.115Z,82.30
2018-05-18T22:31:32.654Z,81.90
2018-05-18T22:34:00.166Z,81.90
2018-05-18T22:36:27.706Z,81.80
2018-05-18T22:38:55.967Z,82.30
2018-05-18T22:41:23.529Z,82.20
2018-05-18T22:43:51.798Z,82.60
2018-05-18T22:46:20.111Z,82.90
2018-05-18T22:48:47.619Z,82.90
2018-05-18T22:51:15.117Z,82.80
2018-05-18T22:53:44.044Z,82.70
2018-05-18T22:56:11.548Z,82.70
2018-05-18T22:58:39.078Z,82.70
2018-05-18T23:01:06.595Z,82.70
2018-05-18T23:03:34.938Z,82.60
2018-05-18T23:06:02.655Z,82.50
2018-05-18T23:08:30.186Z,82.60
2018-05-18T23:10:58.454Z,82.80
2018-05-18T23:13:26.757Z,82.90
2018-05-18T23:15:54.255Z,82.70
2018-05-18T23:18:21.794Z,83.20
2018-05-18T23:20:50.130Z,82.90
2018-05-18T23:23:18.444Z,83.00
2018-05-18T23:25:46.015Z,82.90
2018-05-18T23:28:13.496Z,83.00
2018-05-18T23:30:40.991Z,83.20
2018-05-18T23:33:08.539Z,82.90
2018-05-18T23:35:36.038Z,82.40
2018-05-18T23:38:03.578Z,82.10
2018-05-18T23:40:31.083Z,82.00
2018-05-18T23:42:58.625Z,82.00
2018-05-18T23:45:26.119Z,82.30
2018-05-18T23:47:54.511Z,82.60
2018-05-18T23:50:22.042Z,82.50
2018-05-18T23:52:49.547Z,82.90
2018-05-18T23:55:17.088Z,83.00
2018-05-18T23:57:44.635Z,83.10
